Caravelle, Martinique

7:11 PM AST on April 01, 2015 (GMT -0400)
IFLAMBOY2 | | Change Station
CLOSE
Current Station
Personal Weather Station
Location: Gros Morne, FLAMBOYANT
Elevation: 866 ft
Nearby Weather Stations

Elev 866 ft 14.71 °N, 61.02 °W | Updated 27 seconds ago

Clear
Clear
73.0 °F
Feels Like 77 °F
N
0.2
Wind Variable Wind from North
Gusts 0.0 mph

Today
High -- | Low -- °F
--% Chance of Precip.
Yesterday
High -- | Low -- °F
Precip. -- in
5:59 AM 6:15 PM
Waxing Gibbous, 94% visible
Pressure 29.98 in
Visibility 6.2 miles
Clouds
Heat Index 77 °F
Dew Point 55 °F
Humidity 54%
Rainfall 0.05 in
Snow Depth Not available.
UV Not available.
Pollen Not available.
Air Quality Not available.
Flu Activity Not available.
METAR TFFF 012300Z AUTO 05004KT 9999 NSC 24/21 Q1015

More Conditions Fewer Conditions

Pressure 29.98 in
Visibility 6.2 miles
Clouds
Heat Index 77 °F
Dew Point 55 °F
Humidity 54%
Rainfall 0.05 in
Snow Depth Not available.
UV Not available.
Pollen Not available.
Air Quality Not available.
Flu Activity Not available.
METAR TFFF 012300Z AUTO 05004KT 9999 NSC 24/21 Q1015

More Conditions Fewer Conditions

10-Day Weather Forecast

Almanac

Astronomy

Apr. 01, 2015 Rise Set
Actual Time
Civil Twilight
Nautical Twilight
Astronomical Twilight
Moon
Length of Visible Light
Length of Day
Tomorrow will be .
, % of the Moon is Illuminated

Today's Extremes

Country Highs Country Lows

Community

WunderPhotos

Upload Photos

1,810,113 photos uploaded!

WunderBlogs® & News

Nearby

Air Quality

  Air Quality AQ Index Pollutant
Not available.

Snow Depth

Station Depth Elevation

Earthquake Activity

City Distance Mag. Time & Date
Minimum magnitude displayed is 2.5.

Coastal Water Temperatures

Place Temperature

Stations

Nearby Weather Stations

Station Location Temp. Windchill Dew Point Humidity Wind Precip. Elev Updated Type